FWZ33 LFLL-LFPO
Flight info
| Callsign | FWZ33 |
|---|---|
| Flight time | 0h 56m |
| Altitude | 18000 |
| Route | BUSIL A2 PIBAT |
| Aircraft | A346/H-SDE2E3FGHIJ3J4J5M1RWXY/LB1D1 |
Departure
| Time | 2026-05-05 19:35 |
|---|---|
| Airport | Lyon Saint-Exupéry Airport (LFLL) |
Arrival
| Time | 2026-05-05 20:31 |
|---|---|
| Airport | Paris-Orly Airport (LFPO) |
| Time | Latitude | Longitude | Altitude | Speed | Heading |
|---|---|---|---|---|---|
| 2026-05-05 18:47 | 45.71477 | 5.08281 | 808 ft | 0 kts | 15° |
| 2026-05-05 19:20 | 45.71464 | 5.08276 | 809 ft | 0 kts | 15° |
| 2026-05-05 19:20 | 45.71430 | 5.08262 | 809 ft | 0 kts | 15° |
| 2026-05-05 19:21 | 45.71415 | 5.08256 | 809 ft | 0 kts | 15° |
| 2026-05-05 19:21 | 45.71412 | 5.08255 | 809 ft | 0 kts | 15° |
| 2026-05-05 19:21 | 45.71417 | 5.08257 | 809 ft | 0 kts | 15° |
| 2026-05-05 19:22 | 45.71421 | 5.08260 | 809 ft | 0 kts | 34° |
| 2026-05-05 19:22 | 45.71409 | 5.08232 | 809 ft | 0 kts | 36° |
| 2026-05-05 19:26 | 45.71410 | 5.08233 | 809 ft | 1 kts | 39° |
| 2026-05-05 19:26 | 45.71414 | 5.08261 | 809 ft | 5 kts | 88° |
| 2026-05-05 19:26 | 45.71415 | 5.08327 | 809 ft | 9 kts | 88° |
| 2026-05-05 19:27 | 45.71420 | 5.08436 | 809 ft | 12 kts | 71° |
| 2026-05-05 19:27 | 45.71486 | 5.08500 | 809 ft | 14 kts | 1° |
| 2026-05-05 19:27 | 45.71600 | 5.08505 | 807 ft | 19 kts | 2° |
| 2026-05-05 19:27 | 45.71742 | 5.08492 | 806 ft | 22 kts | 352° |
| 2026-05-05 19:28 | 45.71905 | 5.08468 | 804 ft | 25 kts | 354° |
| 2026-05-05 19:28 | 45.72091 | 5.08444 | 801 ft | 28 kts | 354° |
| 2026-05-05 19:28 | 45.72294 | 5.08416 | 799 ft | 30 kts | 354° |
| 2026-05-05 19:28 | 45.72514 | 5.08387 | 796 ft | 32 kts | 355° |
| 2026-05-05 19:29 | 45.72741 | 5.08363 | 793 ft | 34 kts | 355° |
| 2026-05-05 19:29 | 45.72982 | 5.08336 | 790 ft | 35 kts | 355° |
| 2026-05-05 19:29 | 45.73231 | 5.08307 | 787 ft | 36 kts | 355° |
| 2026-05-05 19:29 | 45.73484 | 5.08277 | 784 ft | 37 kts | 355° |
| 2026-05-05 19:30 | 45.73744 | 5.08240 | 782 ft | 37 kts | 354° |
| 2026-05-05 19:30 | 45.73966 | 5.08218 | 781 ft | 32 kts | 0° |
| 2026-05-05 19:30 | 45.74191 | 5.08264 | 779 ft | 33 kts | 12° |
| 2026-05-05 19:30 | 45.74342 | 5.08392 | 780 ft | 18 kts | 65° |
| 2026-05-05 19:31 | 45.74351 | 5.08433 | 777 ft | 0 kts | 78° |
| 2026-05-05 19:32 | 45.74351 | 5.08437 | 777 ft | 5 kts | 78° |
| 2026-05-05 19:32 | 45.74354 | 5.08518 | 778 ft | 10 kts | 97° |
| 2026-05-05 19:32 | 45.74324 | 5.08609 | 780 ft | 0 kts | 144° |
| 2026-05-05 19:32 | 45.74292 | 5.08632 | 780 ft | 9 kts | 162° |
| 2026-05-05 19:33 | 45.74262 | 5.08640 | 780 ft | 0 kts | 172° |
| 2026-05-05 19:34 | 45.74260 | 5.08641 | 780 ft | 3 kts | 172° |
| 2026-05-05 19:34 | 45.73971 | 5.08678 | 780 ft | 84 kts | 175° |
| 2026-05-05 19:34 | 45.73160 | 5.08777 | 794 ft | 152 kts | 175° |
| 2026-05-05 19:35 | 45.70531 | 5.09081 | 1636 ft | 207 kts | 177° |
| 2026-05-05 19:35 | 45.69101 | 5.09167 | 2792 ft | 202 kts | 179° |
| 2026-05-05 19:35 | 45.67657 | 5.09250 | 3731 ft | 214 kts | 179° |
| 2026-05-05 19:35 | 45.66169 | 5.09757 | 4458 ft | 237 kts | 153° |
| 2026-05-05 19:36 | 45.64663 | 5.12127 | 5365 ft | 271 kts | 113° |
| 2026-05-05 19:36 | 45.64504 | 5.15006 | 6223 ft | 285 kts | 78° |
| 2026-05-05 19:36 | 45.65433 | 5.17535 | 6753 ft | 291 kts | 45° |
| 2026-05-05 19:36 | 45.67183 | 5.18990 | 7539 ft | 298 kts | 14° |
| 2026-05-05 19:37 | 45.69199 | 5.19517 | 8801 ft | 293 kts | 6° |
| 2026-05-05 19:37 | 45.71211 | 5.19953 | 9875 ft | 299 kts | 8° |
| 2026-05-05 19:37 | 45.73307 | 5.20434 | 10677 ft | 310 kts | 0° |
| 2026-05-05 19:37 | 45.75473 | 5.19973 | 11246 ft | 323 kts | 336° |
| 2026-05-05 19:38 | 45.77496 | 5.18409 | 11846 ft | 337 kts | 324° |
| 2026-05-05 19:38 | 45.79510 | 5.16500 | 12430 ft | 355 kts | 323° |
| 2026-05-05 19:38 | 45.81611 | 5.14567 | 13064 ft | 371 kts | 325° |
| 2026-05-05 19:38 | 45.83939 | 5.12554 | 13776 ft | 384 kts | 327° |
| 2026-05-05 19:39 | 45.86311 | 5.10596 | 14686 ft | 389 kts | 328° |
| 2026-05-05 19:39 | 45.88726 | 5.08645 | 15622 ft | 392 kts | 328° |
| 2026-05-05 19:39 | 45.91122 | 5.06720 | 16503 ft | 398 kts | 328° |
| 2026-05-05 19:39 | 45.93552 | 5.04658 | 17317 ft | 403 kts | 326° |
| 2026-05-05 19:40 | 45.95946 | 5.02522 | 17775 ft | 407 kts | 325° |
| 2026-05-05 19:40 | 45.98345 | 5.00354 | 17877 ft | 407 kts | 325° |
| 2026-05-05 19:40 | 46.00759 | 4.98169 | 17875 ft | 407 kts | 325° |
| 2026-05-05 19:40 | 46.03134 | 4.96020 | 17872 ft | 407 kts | 325° |
| 2026-05-05 19:41 | 46.05543 | 4.93841 | 17871 ft | 407 kts | 325° |
| 2026-05-05 19:41 | 46.07954 | 4.91661 | 17863 ft | 407 kts | 325° |
| 2026-05-05 19:41 | 46.10327 | 4.89514 | 17860 ft | 407 kts | 325° |
| 2026-05-05 19:41 | 46.12747 | 4.87321 | 17860 ft | 407 kts | 325° |
| 2026-05-05 19:42 | 46.15142 | 4.85149 | 17863 ft | 406 kts | 325° |
| 2026-05-05 19:42 | 46.17618 | 4.82900 | 17863 ft | 406 kts | 325° |
| 2026-05-05 19:42 | 46.20026 | 4.80712 | 17863 ft | 406 kts | 325° |
| 2026-05-05 19:42 | 46.22422 | 4.78532 | 17877 ft | 406 kts | 325° |
| 2026-05-05 19:43 | 46.24793 | 4.76370 | 17864 ft | 406 kts | 325° |
| 2026-05-05 19:43 | 46.27187 | 4.74188 | 17866 ft | 406 kts | 325° |
| 2026-05-05 19:43 | 46.29588 | 4.72000 | 17866 ft | 406 kts | 326° |
| 2026-05-05 19:43 | 46.31993 | 4.69848 | 17863 ft | 406 kts | 326° |
| 2026-05-05 19:44 | 46.34388 | 4.67725 | 17862 ft | 406 kts | 326° |
| 2026-05-05 19:44 | 46.36812 | 4.65578 | 17863 ft | 406 kts | 326° |
| 2026-05-05 19:44 | 46.39238 | 4.63424 | 17862 ft | 406 kts | 326° |
| 2026-05-05 19:44 | 46.41629 | 4.61295 | 17861 ft | 406 kts | 326° |
| 2026-05-05 19:45 | 46.44045 | 4.59141 | 17859 ft | 406 kts | 326° |
| 2026-05-05 19:45 | 46.46440 | 4.57003 | 17862 ft | 406 kts | 326° |
| 2026-05-05 19:45 | 46.48879 | 4.54821 | 17869 ft | 406 kts | 326° |
| 2026-05-05 19:45 | 46.51264 | 4.52677 | 17863 ft | 406 kts | 326° |
| 2026-05-05 19:46 | 46.53659 | 4.50508 | 17861 ft | 406 kts | 326° |
| 2026-05-05 19:46 | 46.56070 | 4.48319 | 17863 ft | 406 kts | 326° |
| 2026-05-05 19:46 | 46.58466 | 4.46140 | 17860 ft | 406 kts | 326° |
| 2026-05-05 19:46 | 46.60832 | 4.43988 | 17871 ft | 406 kts | 326° |
| 2026-05-05 19:47 | 46.63239 | 4.41796 | 17863 ft | 407 kts | 326° |
| 2026-05-05 19:47 | 46.65650 | 4.39598 | 17859 ft | 407 kts | 326° |
| 2026-05-05 19:47 | 46.68026 | 4.37431 | 17858 ft | 407 kts | 326° |
| 2026-05-05 19:47 | 46.70433 | 4.35233 | 17857 ft | 407 kts | 326° |
| 2026-05-05 19:48 | 46.72847 | 4.33026 | 17855 ft | 407 kts | 326° |
| 2026-05-05 19:48 | 46.75254 | 4.30822 | 17856 ft | 407 kts | 326° |
| 2026-05-05 19:48 | 46.77657 | 4.28628 | 17856 ft | 407 kts | 326° |
| 2026-05-05 19:48 | 46.80135 | 4.26562 | 17854 ft | 408 kts | 330° |
| 2026-05-05 19:49 | 46.82653 | 4.24757 | 17858 ft | 409 kts | 334° |
| 2026-05-05 19:49 | 46.84397 | 4.23667 | 17859 ft | 409 kts | 336° |
| 2026-05-05 19:49 | 46.87943 | 4.21588 | 17856 ft | 410 kts | 336° |
| 2026-05-05 19:49 | 46.90600 | 4.20052 | 17858 ft | 410 kts | 336° |
| 2026-05-05 19:50 | 46.93220 | 4.18534 | 17861 ft | 410 kts | 336° |
| 2026-05-05 19:50 | 46.95919 | 4.16964 | 17861 ft | 410 kts | 336° |
| 2026-05-05 19:50 | 46.98575 | 4.15414 | 17859 ft | 410 kts | 336° |
| 2026-05-05 19:50 | 47.01194 | 4.13881 | 17860 ft | 410 kts | 336° |
| 2026-05-05 19:51 | 47.03883 | 4.12304 | 17862 ft | 410 kts | 336° |
| 2026-05-05 19:51 | 47.06507 | 4.10763 | 17861 ft | 410 kts | 336° |
| 2026-05-05 19:51 | 47.09168 | 4.09197 | 17860 ft | 410 kts | 336° |
| 2026-05-05 19:51 | 47.11800 | 4.07648 | 17859 ft | 410 kts | 336° |
| 2026-05-05 19:52 | 47.14450 | 4.06085 | 17858 ft | 409 kts | 336° |
| 2026-05-05 19:52 | 47.17099 | 4.04521 | 17857 ft | 409 kts | 336° |
| 2026-05-05 19:52 | 47.19754 | 4.02952 | 17850 ft | 410 kts | 336° |
| 2026-05-05 19:52 | 47.22389 | 4.01393 | 17853 ft | 410 kts | 336° |
| 2026-05-05 19:53 | 47.25032 | 3.99828 | 17852 ft | 410 kts | 336° |
| 2026-05-05 19:53 | 47.27671 | 3.98264 | 17853 ft | 410 kts | 336° |
| 2026-05-05 19:53 | 47.30293 | 3.96708 | 17851 ft | 410 kts | 336° |
| 2026-05-05 19:53 | 47.32952 | 3.95127 | 17849 ft | 410 kts | 336° |
| 2026-05-05 19:54 | 47.35555 | 3.93579 | 17845 ft | 410 kts | 336° |
| 2026-05-05 19:54 | 47.38236 | 3.91983 | 17848 ft | 410 kts | 336° |
| 2026-05-05 19:54 | 47.40891 | 3.90400 | 17844 ft | 410 kts | 336° |
| 2026-05-05 19:54 | 47.43513 | 3.88834 | 17851 ft | 409 kts | 336° |
| 2026-05-05 19:55 | 47.46162 | 3.87251 | 17851 ft | 409 kts | 336° |
| 2026-05-05 19:55 | 47.48814 | 3.85664 | 17844 ft | 410 kts | 336° |
| 2026-05-05 19:55 | 47.51434 | 3.84095 | 17843 ft | 410 kts | 336° |
| 2026-05-05 19:55 | 47.54096 | 3.82499 | 17846 ft | 410 kts | 336° |
| 2026-05-05 19:56 | 47.56724 | 3.80924 | 17845 ft | 411 kts | 336° |
| 2026-05-05 19:56 | 47.59371 | 3.79333 | 17840 ft | 411 kts | 336° |
| 2026-05-05 19:56 | 47.62049 | 3.77721 | 17840 ft | 411 kts | 336° |
| 2026-05-05 19:56 | 47.64668 | 3.76143 | 17840 ft | 411 kts | 336° |
| 2026-05-05 19:57 | 47.67336 | 3.74534 | 17834 ft | 411 kts | 336° |
| 2026-05-05 19:57 | 47.69092 | 3.73474 | 17840 ft | 411 kts | 336° |
| 2026-05-05 19:57 | 47.72640 | 3.71331 | 17837 ft | 411 kts | 336° |
| 2026-05-05 19:57 | 47.75292 | 3.69727 | 17834 ft | 411 kts | 336° |
| 2026-05-05 19:58 | 47.77909 | 3.68145 | 17830 ft | 411 kts | 335° |
| 2026-05-05 19:58 | 47.80574 | 3.66529 | 17833 ft | 411 kts | 335° |
| 2026-05-05 19:58 | 47.83239 | 3.64911 | 17831 ft | 411 kts | 335° |
| 2026-05-05 19:58 | 47.85904 | 3.63291 | 17831 ft | 411 kts | 335° |
| 2026-05-05 19:59 | 47.88531 | 3.61692 | 17832 ft | 411 kts | 335° |
| 2026-05-05 19:59 | 47.91183 | 3.60077 | 17834 ft | 411 kts | 335° |
| 2026-05-05 19:59 | 47.93831 | 3.58463 | 17822 ft | 408 kts | 335° |
| 2026-05-05 19:59 | 47.96323 | 3.56590 | 17629 ft | 394 kts | 325° |
| 2026-05-05 20:00 | 47.98421 | 3.54148 | 17420 ft | 379 kts | 314° |
| 2026-05-05 20:00 | 48.00277 | 3.51398 | 17207 ft | 368 kts | 311° |
| 2026-05-05 20:00 | 48.02032 | 3.48667 | 16947 ft | 359 kts | 310° |
| 2026-05-05 20:00 | 48.03757 | 3.45970 | 16490 ft | 356 kts | 311° |
| 2026-05-05 20:01 | 48.05472 | 3.43306 | 16040 ft | 354 kts | 311° |
| 2026-05-05 20:01 | 48.07173 | 3.40679 | 15611 ft | 352 kts | 311° |
| 2026-05-05 20:01 | 48.08874 | 3.38060 | 15208 ft | 349 kts | 311° |
| 2026-05-05 20:01 | 48.10570 | 3.35456 | 14831 ft | 345 kts | 311° |
| 2026-05-05 20:02 | 48.12233 | 3.32904 | 14416 ft | 342 kts | 311° |
| 2026-05-05 20:02 | 48.13898 | 3.30347 | 13997 ft | 340 kts | 311° |
| 2026-05-05 20:02 | 48.15544 | 3.27818 | 13591 ft | 338 kts | 311° |
| 2026-05-05 20:02 | 48.17150 | 3.25348 | 13331 ft | 330 kts | 311° |
| 2026-05-05 20:03 | 48.18734 | 3.22911 | 13134 ft | 320 kts | 311° |
| 2026-05-05 20:03 | 48.20342 | 3.20437 | 12934 ft | 310 kts | 311° |
| 2026-05-05 20:03 | 48.21827 | 3.18153 | 12757 ft | 301 kts | 311° |
| 2026-05-05 20:03 | 48.23279 | 3.15920 | 12485 ft | 296 kts | 311° |
| 2026-05-05 20:04 | 48.24718 | 3.13702 | 12110 ft | 294 kts | 311° |
| 2026-05-05 20:04 | 48.26147 | 3.11495 | 11740 ft | 292 kts | 311° |
| 2026-05-05 20:04 | 48.27565 | 3.09307 | 11377 ft | 290 kts | 311° |
| 2026-05-05 20:04 | 48.28868 | 3.07051 | 11005 ft | 286 kts | 299° |
| 2026-05-05 20:05 | 48.29816 | 3.04447 | 10663 ft | 281 kts | 293° |
| 2026-05-05 20:05 | 48.30654 | 3.01828 | 10328 ft | 279 kts | 292° |
| 2026-05-05 20:05 | 48.31480 | 2.99182 | 9988 ft | 277 kts | 292° |
| 2026-05-05 20:05 | 48.32008 | 2.97445 | 9835 ft | 275 kts | 292° |
| 2026-05-05 20:06 | 48.33060 | 2.93935 | 9825 ft | 277 kts | 292° |
| 2026-05-05 20:06 | 48.33596 | 2.92140 | 9824 ft | 277 kts | 292° |
| 2026-05-05 20:06 | 48.34379 | 2.89519 | 9825 ft | 277 kts | 292° |
| 2026-05-05 20:06 | 48.35176 | 2.86847 | 9824 ft | 278 kts | 292° |
| 2026-05-05 20:07 | 48.35968 | 2.84191 | 9821 ft | 278 kts | 292° |
| 2026-05-05 20:07 | 48.36758 | 2.81543 | 9791 ft | 275 kts | 292° |
| 2026-05-05 20:07 | 48.37565 | 2.78847 | 9454 ft | 273 kts | 292° |
| 2026-05-05 20:07 | 48.38355 | 2.76193 | 9011 ft | 274 kts | 292° |
| 2026-05-05 20:08 | 48.39114 | 2.73594 | 8662 ft | 272 kts | 289° |
| 2026-05-05 20:08 | 48.39662 | 2.70918 | 8308 ft | 269 kts | 283° |
| 2026-05-05 20:08 | 48.40118 | 2.68176 | 7956 ft | 268 kts | 282° |
| 2026-05-05 20:08 | 48.40550 | 2.65448 | 7606 ft | 266 kts | 282° |
| 2026-05-05 20:09 | 48.40973 | 2.62729 | 7266 ft | 265 kts | 282° |
| 2026-05-05 20:09 | 48.41384 | 2.59968 | 6891 ft | 266 kts | 282° |
| 2026-05-05 20:09 | 48.41771 | 2.57268 | 6828 ft | 268 kts | 283° |
| 2026-05-05 20:09 | 48.42128 | 2.54468 | 6831 ft | 273 kts | 282° |
| 2026-05-05 20:10 | 48.42475 | 2.51634 | 6831 ft | 274 kts | 282° |
| 2026-05-05 20:10 | 48.42807 | 2.48827 | 6828 ft | 273 kts | 282° |
| 2026-05-05 20:10 | 48.43140 | 2.46025 | 6831 ft | 274 kts | 282° |
| 2026-05-05 20:10 | 48.43481 | 2.43197 | 6816 ft | 272 kts | 282° |
| 2026-05-05 20:11 | 48.43819 | 2.40431 | 6530 ft | 270 kts | 282° |
| 2026-05-05 20:11 | 48.44167 | 2.37572 | 6144 ft | 271 kts | 282° |
| 2026-05-05 20:11 | 48.44492 | 2.34814 | 5835 ft | 269 kts | 282° |
| 2026-05-05 20:11 | 48.44816 | 2.32022 | 5482 ft | 268 kts | 282° |
| 2026-05-05 20:12 | 48.45138 | 2.29259 | 5144 ft | 267 kts | 282° |
| 2026-05-05 20:12 | 48.45452 | 2.26523 | 4840 ft | 266 kts | 282° |
| 2026-05-05 20:12 | 48.45760 | 2.23775 | 4525 ft | 264 kts | 282° |
| 2026-05-05 20:12 | 48.46066 | 2.21023 | 4193 ft | 263 kts | 282° |
| 2026-05-05 20:13 | 48.46459 | 2.18383 | 3871 ft | 260 kts | 294° |
| 2026-05-05 20:13 | 48.47192 | 2.16041 | 3869 ft | 261 kts | 300° |
| 2026-05-05 20:13 | 48.48102 | 2.13488 | 3850 ft | 263 kts | 302° |
| 2026-05-05 20:13 | 48.48974 | 2.11070 | 3857 ft | 262 kts | 302° |
| 2026-05-05 20:14 | 48.49862 | 2.08634 | 3857 ft | 263 kts | 302° |
| 2026-05-05 20:14 | 48.50739 | 2.06234 | 3862 ft | 263 kts | 302° |
| 2026-05-05 20:14 | 48.51625 | 2.03808 | 3869 ft | 262 kts | 302° |
| 2026-05-05 20:14 | 48.52487 | 2.01425 | 3872 ft | 262 kts | 302° |
| 2026-05-05 20:15 | 48.53345 | 1.99052 | 3869 ft | 262 kts | 302° |
| 2026-05-05 20:15 | 48.54228 | 1.96624 | 3870 ft | 262 kts | 302° |
| 2026-05-05 20:15 | 48.55158 | 1.94263 | 3865 ft | 260 kts | 312° |
| 2026-05-05 20:15 | 48.56542 | 1.92656 | 3760 ft | 249 kts | 340° |
| 2026-05-05 20:16 | 48.58254 | 1.92187 | 3343 ft | 247 kts | 0° |
| 2026-05-05 20:16 | 48.59989 | 1.92282 | 3032 ft | 245 kts | 7° |
| 2026-05-05 20:16 | 48.61619 | 1.92946 | 2752 ft | 241 kts | 22° |
| 2026-05-05 20:16 | 48.63207 | 1.93761 | 2438 ft | 240 kts | 14° |
| 2026-05-05 20:17 | 48.64808 | 1.94421 | 2116 ft | 238 kts | 25° |
| 2026-05-05 20:17 | 48.66025 | 1.96022 | 2017 ft | 239 kts | 55° |
| 2026-05-05 20:17 | 48.66687 | 1.98369 | 2030 ft | 243 kts | 66° |
| 2026-05-05 20:17 | 48.67560 | 2.00514 | 2006 ft | 242 kts | 45° |
| 2026-05-05 20:18 | 48.68607 | 2.02508 | 2539 ft | 259 kts | 62° |
| 2026-05-05 20:18 | 48.68973 | 2.05116 | 3358 ft | 254 kts | 90° |
| 2026-05-05 20:18 | 48.68474 | 2.07660 | 3841 ft | 261 kts | 118° |
| 2026-05-05 20:18 | 48.67203 | 2.09736 | 4042 ft | 270 kts | 137° |
| 2026-05-05 20:19 | 48.65681 | 2.11478 | 4024 ft | 271 kts | 141° |
| 2026-05-05 20:19 | 48.64161 | 2.13110 | 4018 ft | 271 kts | 142° |
| 2026-05-05 20:19 | 48.62612 | 2.14754 | 4018 ft | 271 kts | 142° |
| 2026-05-05 20:19 | 48.61067 | 2.16399 | 4016 ft | 270 kts | 142° |
| 2026-05-05 20:20 | 48.59535 | 2.18047 | 4016 ft | 270 kts | 143° |
| 2026-05-05 20:20 | 48.57969 | 2.19632 | 3991 ft | 271 kts | 155° |
| 2026-05-05 20:20 | 48.56116 | 2.20166 | 3981 ft | 273 kts | 185° |
| 2026-05-05 20:20 | 48.54344 | 2.19338 | 3997 ft | 274 kts | 213° |
| 2026-05-05 20:21 | 48.52993 | 2.17347 | 4020 ft | 272 kts | 236° |
| 2026-05-05 20:21 | 48.51960 | 2.14928 | 3999 ft | 273 kts | 241° |
| 2026-05-05 20:21 | 48.51004 | 2.12479 | 3998 ft | 275 kts | 242° |
| 2026-05-05 20:21 | 48.50041 | 2.09968 | 3991 ft | 276 kts | 242° |
| 2026-05-05 20:22 | 48.49139 | 2.07418 | 3987 ft | 274 kts | 252° |
| 2026-05-05 20:22 | 48.48926 | 2.04621 | 3987 ft | 267 kts | 282° |
| 2026-05-05 20:22 | 48.49600 | 2.02113 | 3997 ft | 261 kts | 310° |
| 2026-05-05 20:22 | 48.50851 | 2.00123 | 4007 ft | 259 kts | 320° |
| 2026-05-05 20:23 | 48.52200 | 1.98300 | 4009 ft | 259 kts | 321° |
| 2026-05-05 20:23 | 48.53537 | 1.96544 | 4006 ft | 259 kts | 322° |
| 2026-05-05 20:23 | 48.54910 | 1.94748 | 4007 ft | 259 kts | 322° |
| 2026-05-05 20:23 | 48.56282 | 1.92954 | 4004 ft | 259 kts | 322° |
| 2026-05-05 20:24 | 48.57695 | 1.91222 | 3992 ft | 257 kts | 332° |
| 2026-05-05 20:24 | 48.59351 | 1.90482 | 4001 ft | 252 kts | 1° |
| 2026-05-05 20:24 | 48.61026 | 1.91099 | 4004 ft | 249 kts | 30° |
| 2026-05-05 20:24 | 48.62208 | 1.92842 | 3998 ft | 236 kts | 60° |
| 2026-05-05 20:25 | 48.62599 | 1.95177 | 4009 ft | 225 kts | 85° |
| 2026-05-05 20:25 | 48.62555 | 1.97494 | 3954 ft | 215 kts | 90° |
| 2026-05-05 20:25 | 48.62436 | 1.99731 | 3813 ft | 209 kts | 91° |
| 2026-05-05 20:25 | 48.62303 | 2.01875 | 3630 ft | 205 kts | 91° |
| 2026-05-05 20:26 | 48.62154 | 2.04030 | 3419 ft | 203 kts | 91° |
| 2026-05-05 20:26 | 48.61993 | 2.06167 | 3192 ft | 201 kts | 90° |
| 2026-05-05 20:26 | 48.61896 | 2.08237 | 2973 ft | 198 kts | 89° |
| 2026-05-05 20:26 | 48.61958 | 2.10321 | 2653 ft | 195 kts | 70° |
| 2026-05-05 20:27 | 48.62449 | 2.12214 | 2413 ft | 193 kts | 62° |
| 2026-05-05 20:27 | 48.63047 | 2.13955 | 2201 ft | 191 kts | 57° |
| 2026-05-05 20:27 | 48.63769 | 2.15618 | 1987 ft | 187 kts | 48° |
| 2026-05-05 20:27 | 48.64573 | 2.17134 | 1760 ft | 185 kts | 49° |
| 2026-05-05 20:28 | 48.65359 | 2.18607 | 1569 ft | 177 kts | 46° |
| 2026-05-05 20:28 | 48.66147 | 2.19912 | 1395 ft | 169 kts | 51° |
| 2026-05-05 20:28 | 48.66821 | 2.21310 | 1236 ft | 161 kts | 51° |
| 2026-05-05 20:28 | 48.67428 | 2.22509 | 1185 ft | 141 kts | 49° |
| 2026-05-05 20:29 | 48.68019 | 2.23569 | 980 ft | 135 kts | 46° |
| 2026-05-05 20:29 | 48.68634 | 2.24611 | 799 ft | 137 kts | 46° |
| 2026-05-05 20:29 | 48.69255 | 2.25695 | 658 ft | 135 kts | 50° |
| 2026-05-05 20:29 | 48.69785 | 2.26822 | 564 ft | 136 kts | 53° |
| 2026-05-05 20:30 | 48.70326 | 2.27962 | 544 ft | 134 kts | 50° |
| 2026-05-05 20:30 | 48.70876 | 2.29045 | 497 ft | 137 kts | 51° |
| 2026-05-05 20:30 | 48.71409 | 2.30201 | 407 ft | 137 kts | 54° |
| 2026-05-05 20:30 | 48.71882 | 2.31390 | 341 ft | 138 kts | 54° |
| 2026-05-05 20:31 | 48.72328 | 2.32569 | 301 ft | 127 kts | 66° |
| 2026-05-05 20:31 | 48.72688 | 2.33601 | 301 ft | 86 kts | 64° |
| 2026-05-05 20:31 | 48.72871 | 2.34136 | 299 ft | 42 kts | 62° |
| 2026-05-05 20:31 | 48.72987 | 2.34533 | 297 ft | 40 kts | 73° |
| 2026-05-05 20:32 | 48.73023 | 2.34871 | 298 ft | 28 kts | 82° |
| 2026-05-05 20:32 | 48.73040 | 2.35060 | 297 ft | 0 kts | 86° |
| 2026-05-05 20:33 | 48.73046 | 2.35204 | 296 ft | 25 kts | 89° |
| 2026-05-05 20:33 | 48.72973 | 2.35319 | 300 ft | 13 kts | 162° |
| 2026-05-05 20:33 | 48.72867 | 2.35313 | 299 ft | 17 kts | 189° |
| 2026-05-05 20:33 | 48.72739 | 2.35267 | 298 ft | 17 kts | 187° |
| 2026-05-05 20:34 | 48.72670 | 2.35235 | 300 ft | 10 kts | 238° |
| 2026-05-05 20:34 | 48.72656 | 2.35186 | 298 ft | 2 kts | 253° |
| 2026-05-05 20:34 | 48.72651 | 2.35160 | 300 ft | 0 kts | 257° |
| 2026-05-05 20:34 | 48.72650 | 2.35155 | 299 ft | 0 kts | 256° |